createdAt,value
2018-05-31T00:00:18.789Z,15.90
2018-05-31T00:02:46.365Z,15.97
2018-05-31T00:05:13.930Z,15.90
2018-05-31T00:07:42.214Z,15.13
2018-05-31T00:12:43.760Z,14.70
2018-05-31T00:15:11.278Z,15.40
2018-05-31T00:17:38.813Z,17.90
2018-05-31T00:20:06.354Z,16.80
2018-05-31T00:22:33.873Z,17.03
2018-05-31T00:25:01.399Z,14.33
2018-05-31T00:27:28.913Z,17.67
2018-05-31T00:29:56.438Z,16.60
2018-05-31T00:32:23.959Z,16.50
2018-05-31T00:34:51.485Z,15.80
2018-05-31T00:37:19.011Z,17.33
2018-05-31T00:39:47.322Z,14.93
2018-05-31T00:42:14.842Z,16.13
2018-05-31T00:44:42.362Z,16.40
2018-05-31T00:47:10.655Z,16.27
2018-05-31T00:49:38.203Z,16.37
2018-05-31T00:52:05.714Z,17.37
2018-05-31T00:54:33.230Z,16.90
2018-05-31T00:57:01.526Z,14.03
2018-05-31T00:59:29.834Z,15.60
2018-05-31T01:01:57.346Z,17.90
2018-05-31T01:04:24.855Z,13.33
2018-05-31T01:06:52.362Z,14.10
2018-05-31T01:09:19.882Z,12.37
2018-05-31T01:11:47.411Z,16.50
2018-05-31T01:14:14.921Z,17.20
2018-05-31T01:16:43.253Z,15.00
2018-05-31T01:19:10.785Z,16.37
2018-05-31T01:21:38.323Z,14.97
2018-05-31T01:24:05.830Z,14.27
2018-05-31T01:26:33.334Z,15.80
2018-05-31T01:29:00.853Z,13.53
2018-05-31T01:31:29.120Z,18.33
2018-05-31T01:33:56.642Z,16.20
2018-05-31T01:36:24.146Z,15.67
2018-05-31T01:38:51.649Z,13.73
2018-05-31T01:41:19.172Z,15.30
2018-05-31T01:43:46.678Z,18.57
2018-05-31T01:46:14.202Z,17.10
2018-05-31T01:48:41.706Z,12.07
2018-05-31T01:51:09.210Z,15.70
2018-05-31T01:53:37.481Z,16.73
2018-05-31T01:56:04.990Z,16.03
2018-05-31T01:58:33.268Z,20.27
2018-05-31T02:01:00.778Z,16.53
2018-05-31T02:03:29.052Z,17.67
2018-05-31T02:05:56.570Z,18.17
2018-05-31T02:08:24.859Z,20.80
2018-05-31T02:10:52.361Z,17.97
2018-05-31T02:13:20.662Z,14.20
2018-05-31T02:15:48.960Z,17.90
2018-05-31T02:18:27.068Z,17.90
2018-05-31T02:20:54.570Z,17.23
2018-05-31T02:23:22.848Z,20.00
2018-05-31T02:25:50.353Z,18.63
2018-05-31T02:28:18.630Z,18.10
2018-05-31T02:30:46.134Z,19.13
2018-05-31T02:33:14.416Z,14.47
2018-05-31T02:35:41.922Z,17.60
2018-05-31T02:38:10.209Z,17.40
2018-05-31T02:40:37.720Z,18.63
2018-05-31T02:43:06.010Z,17.33
2018-05-31T02:45:34.282Z,18.30
2018-05-31T02:48:01.791Z,17.60
2018-05-31T02:50:29.286Z,18.50
2018-05-31T02:52:57.581Z,18.90
2018-05-31T02:55:25.871Z,18.27
2018-05-31T02:57:53.398Z,19.67
2018-05-31T03:00:20.893Z,17.53
2018-05-31T03:02:48.423Z,20.70
2018-05-31T03:05:15.941Z,21.37
2018-05-31T03:07:43.467Z,18.10
2018-05-31T03:10:10.960Z,17.83
2018-05-31T03:12:38.465Z,19.90
2018-05-31T03:15:06.734Z,21.80
2018-05-31T03:17:34.238Z,20.63
2018-05-31T03:20:01.758Z,20.40
2018-05-31T03:22:29.269Z,16.90
2018-05-31T03:24:56.758Z,18.63
2018-05-31T03:27:24.305Z,20.30
2018-05-31T03:29:51.802Z,19.77
2018-05-31T03:32:19.356Z,20.50
2018-05-31T03:34:47.631Z,21.07
2018-05-31T03:37:15.130Z,22.83
2018-05-31T03:39:43.425Z,24.20
2018-05-31T03:42:10.944Z,24.33
2018-05-31T03:44:38.457Z,27.67
2018-05-31T03:47:05.965Z,23.90
2018-05-31T03:49:33.471Z,25.33
2018-05-31T03:52:01.743Z,24.37
2018-05-31T03:54:29.246Z,22.17
2018-05-31T03:56:56.749Z,24.67
2018-05-31T03:59:25.026Z,20.10
2018-05-31T04:01:52.549Z,22.63
2018-05-31T04:04:20.074Z,28.10
2018-05-31T04:06:47.609Z,25.10
2018-05-31T04:09:15.910Z,27.20
2018-05-31T04:11:43.446Z,27.20
2018-05-31T04:14:10.960Z,31.43
2018-05-31T04:16:38.469Z,30.97
2018-05-31T04:19:05.958Z,30.90
2018-05-31T04:21:33.450Z,31.27
2018-05-31T04:24:00.970Z,21.90
2018-05-31T04:26:28.477Z,30.70
2018-05-31T04:28:56.759Z,31.60
2018-05-31T04:31:24.266Z,30.10
2018-05-31T04:33:52.546Z,33.83
2018-05-31T04:36:20.049Z,30.40
2018-05-31T04:38:47.559Z,30.60
2018-05-31T04:41:15.079Z,35.60
2018-05-31T04:43:42.602Z,28.53
2018-05-31T04:46:10.859Z,26.93
2018-05-31T04:48:38.366Z,19.60
2018-05-31T04:51:05.867Z,21.90
2018-05-31T04:53:34.162Z,29.23
2018-05-31T04:56:01.665Z,28.20
2018-05-31T04:58:29.954Z,23.67
2018-05-31T05:00:57.446Z,30.10
2018-05-31T05:03:25.729Z,31.70
2018-05-31T05:05:53.236Z,31.87
2018-05-31T05:08:21.533Z,31.87
2018-05-31T05:10:49.818Z,31.80
2018-05-31T05:13:17.343Z,28.70
2018-05-31T05:15:44.856Z,33.27
2018-05-31T05:18:12.375Z,30.87
2018-05-31T05:20:39.917Z,33.80
2018-05-31T05:23:07.421Z,30.43
2018-05-31T05:25:35.701Z,31.17
2018-05-31T05:28:03.245Z,31.40
2018-05-31T05:30:31.527Z,31.47
2018-05-31T05:32:59.042Z,25.67
2018-05-31T05:35:26.661Z,26.43
2018-05-31T05:37:54.171Z,38.73
2018-05-31T05:40:23.201Z,29.17
2018-05-31T05:42:50.721Z,33.10
2018-05-31T05:45:18.246Z,29.60
2018-05-31T05:50:20.412Z,25.83
2018-05-31T05:52:47.917Z,26.03
2018-05-31T05:55:16.194Z,29.73
2018-05-31T05:57:43.747Z,28.47
2018-05-31T06:00:11.269Z,24.93
2018-05-31T06:02:39.537Z,25.20
2018-05-31T06:05:07.066Z,25.13
2018-05-31T06:07:35.385Z,24.80
2018-05-31T06:10:02.994Z,27.73
2018-05-31T06:12:30.429Z,20.10
2018-05-31T06:14:57.932Z,27.10
2018-05-31T06:17:26.205Z,22.00
2018-05-31T06:19:53.714Z,21.37
2018-05-31T06:22:22.003Z,27.50
2018-05-31T06:24:50.294Z,25.33
2018-05-31T06:27:17.801Z,22.73
2018-05-31T06:29:45.305Z,22.47
2018-05-31T06:32:12.838Z,23.87
2018-05-31T06:34:40.640Z,22.40
2018-05-31T06:37:08.212Z,23.07
2018-05-31T06:39:35.668Z,25.60
2018-05-31T06:42:03.185Z,28.97
2018-05-31T06:44:30.713Z,16.83
2018-05-31T06:46:58.246Z,19.60
2018-05-31T06:49:25.794Z,17.57
2018-05-31T06:51:53.295Z,18.10
2018-05-31T06:54:20.862Z,23.70
2018-05-31T06:56:48.366Z,22.27
2018-05-31T06:59:15.878Z,23.40
2018-05-31T07:01:43.411Z,19.13
2018-05-31T07:04:10.963Z,18.90
2018-05-31T07:06:42.346Z,20.70
2018-05-31T07:09:10.311Z,20.90
2018-05-31T07:11:38.607Z,20.00
2018-05-31T07:14:06.144Z,21.20
2018-05-31T07:16:33.673Z,17.90
2018-05-31T07:19:01.198Z,18.10
2018-05-31T07:21:28.706Z,20.00
2018-05-31T07:23:56.243Z,16.30
2018-05-31T07:26:23.778Z,18.93
2018-05-31T07:28:51.294Z,21.93
2018-05-31T07:31:18.829Z,19.90
2018-05-31T07:33:46.363Z,23.70
2018-05-31T07:36:13.953Z,21.13
2018-05-31T07:38:41.697Z,21.03
2018-05-31T07:41:09.998Z,17.50
2018-05-31T07:43:37.507Z,16.63
2018-05-31T07:46:05.034Z,16.70
2018-05-31T07:48:33.340Z,16.57
2018-05-31T07:51:01.645Z,23.40
2018-05-31T07:53:29.944Z,18.00
2018-05-31T07:55:57.489Z,19.20
2018-05-31T07:58:25.063Z,14.57
2018-05-31T08:00:52.566Z,15.00
2018-05-31T08:03:20.113Z,13.50
2018-05-31T08:05:47.720Z,16.67
2018-05-31T08:08:15.211Z,14.40
2018-05-31T08:10:42.737Z,13.63
2018-05-31T08:13:10.274Z,14.27
2018-05-31T08:15:37.782Z,11.83
2018-05-31T08:18:06.057Z,13.07
2018-05-31T08:23:07.593Z,15.80
2018-05-31T08:25:35.165Z,13.90
2018-05-31T08:28:02.691Z,14.03
2018-05-31T08:30:30.999Z,14.87
2018-05-31T08:32:58.518Z,13.80
2018-05-31T08:35:26.034Z,14.33
2018-05-31T08:37:53.562Z,13.50
2018-05-31T08:40:21.102Z,16.93
2018-05-31T08:42:48.650Z,19.17
2018-05-31T08:45:16.938Z,12.83
2018-05-31T08:47:44.457Z,11.40
2018-05-31T08:50:11.999Z,15.10
2018-05-31T08:52:39.521Z,12.00
2018-05-31T08:55:07.064Z,16.23
2018-05-31T08:57:34.577Z,15.07
2018-05-31T09:00:03.394Z,14.90
2018-05-31T09:18:19.207Z,12.93
2018-05-31T09:20:57.601Z,11.90
2018-05-31T09:23:33.265Z,13.30
2018-05-31T09:59:36.048Z,16.30
2018-05-31T10:02:08.163Z,13.60
2018-05-31T14:05:24.778Z,9.50
2018-05-31T14:07:52.316Z,13.50
2018-05-31T14:10:19.848Z,8.50
2018-05-31T14:12:48.124Z,7.87
2018-05-31T14:15:16.434Z,8.67
2018-05-31T14:17:45.354Z,8.20
2018-05-31T14:20:13.663Z,7.57
2018-05-31T14:22:41.183Z,7.07
2018-05-31T14:25:08.743Z,7.20
2018-05-31T14:27:36.287Z,7.90
2018-05-31T15:05:20.571Z,11.53
2018-05-31T15:07:48.868Z,12.57
2018-05-31T15:10:16.406Z,8.90
2018-05-31T15:12:43.975Z,8.53
2018-05-31T15:15:11.528Z,7.90
2018-05-31T15:17:39.823Z,13.93
2018-05-31T15:20:08.118Z,11.40
2018-05-31T15:22:35.626Z,9.63
2018-05-31T15:25:03.935Z,7.23
2018-05-31T15:27:31.449Z,10.50
2018-05-31T15:29:59.007Z,8.43
2018-05-31T15:32:26.546Z,8.23
2018-05-31T15:34:54.095Z,8.03
2018-05-31T15:39:55.623Z,7.87
2018-05-31T15:42:23.170Z,7.97
2018-05-31T15:44:50.730Z,11.00
2018-05-31T15:47:18.254Z,9.10
2018-05-31T15:49:45.773Z,8.53
2018-05-31T15:52:14.050Z,9.40
2018-05-31T15:57:41.946Z,10.07
2018-05-31T16:00:09.490Z,8.33
2018-05-31T16:02:37.028Z,9.13
2018-05-31T16:05:17.460Z,9.13
2018-05-31T16:07:53.077Z,8.87
2018-05-31T16:10:20.750Z,10.30
2018-05-31T16:12:48.968Z,13.60
2018-05-31T16:15:17.353Z,7.77
2018-05-31T16:17:49.580Z,8.40
2018-05-31T16:20:26.621Z,11.70
2018-05-31T16:23:05.739Z,8.30
2018-05-31T16:25:46.858Z,13.80
2018-05-31T16:28:16.859Z,9.70
2018-05-31T16:30:58.313Z,9.63
2018-05-31T16:33:29.825Z,14.37
2018-05-31T16:36:06.390Z,11.13
2018-05-31T16:38:34.014Z,9.87
2018-05-31T16:41:02.770Z,12.90
2018-05-31T16:46:09.098Z,8.83
2018-05-31T18:57:16.014Z,12.00
2018-05-31T19:00:01.136Z,9.67
2018-05-31T19:02:30.140Z,11.73
2018-05-31T19:04:58.695Z,8.73
2018-05-31T19:07:31.628Z,10.80
2018-05-31T19:15:09.036Z,13.10
2018-05-31T19:18:12.206Z,12.73
2018-05-31T19:34:43.887Z,9.70
2018-05-31T19:37:13.335Z,9.67
2018-05-31T19:39:40.897Z,11.13
2018-05-31T19:42:24.178Z,9.63
2018-05-31T19:44:51.729Z,10.40
2018-05-31T19:47:19.254Z,9.70
2018-05-31T19:49:46.845Z,12.97
2018-05-31T19:52:20.743Z,13.83
2018-05-31T19:54:48.260Z,10.30
2018-05-31T19:57:15.795Z,9.50
2018-05-31T19:59:48.969Z,10.80
2018-05-31T20:02:22.217Z,9.53
2018-05-31T20:04:49.759Z,12.57
2018-05-31T21:05:03.035Z,8.13
2018-05-31T21:07:31.837Z,8.20
2018-05-31T21:09:59.435Z,10.10
2018-05-31T21:12:27.040Z,8.10
2018-05-31T21:14:54.616Z,8.70
2018-05-31T21:17:22.147Z,9.97
2018-05-31T21:19:49.701Z,6.23
2018-05-31T21:22:17.224Z,6.60
2018-05-31T21:24:46.359Z,6.30
2018-05-31T21:27:14.158Z,7.40
2018-05-31T21:29:41.709Z,8.47
2018-05-31T21:32:09.286Z,8.60
2018-05-31T21:34:36.824Z,8.80
2018-05-31T21:37:04.388Z,9.93
2018-05-31T21:39:32.005Z,7.57
2018-05-31T21:41:59.596Z,7.40
2018-05-31T21:44:27.130Z,8.80
2018-05-31T21:46:54.674Z,7.70
2018-05-31T21:49:22.236Z,9.20
2018-05-31T21:51:49.764Z,9.00
2018-05-31T21:54:17.319Z,10.17
2018-05-31T21:56:44.881Z,8.47
2018-05-31T21:59:12.447Z,9.93
2018-05-31T22:01:39.991Z,10.60
2018-05-31T22:06:42.194Z,12.17
2018-05-31T22:09:09.759Z,9.83
2018-05-31T22:11:37.284Z,7.70
2018-05-31T22:14:04.872Z,10.30
2018-05-31T22:16:33.197Z,7.37
2018-05-31T22:19:00.712Z,7.97
2018-05-31T22:21:28.255Z,7.80
2018-05-31T22:23:55.790Z,8.00
2018-05-31T22:26:23.332Z,6.50
2018-05-31T22:28:50.866Z,9.30
2018-05-31T22:31:18.434Z,10.20
2018-05-31T22:33:46.037Z,7.77
2018-05-31T22:36:13.578Z,8.83
2018-05-31T22:38:41.882Z,8.40
2018-05-31T22:41:10.211Z,8.97
2018-05-31T22:43:37.821Z,8.23
2018-05-31T22:46:05.452Z,6.37
2018-05-31T22:48:32.971Z,8.00
2018-05-31T22:51:00.557Z,7.50
2018-05-31T22:53:28.090Z,8.13
2018-05-31T22:55:55.610Z,6.80
2018-05-31T22:58:23.177Z,9.33
2018-05-31T23:00:51.490Z,7.47
2018-05-31T23:03:19.823Z,5.53
2018-05-31T23:05:47.373Z,7.10
2018-05-31T23:08:15.685Z,4.73
2018-05-31T23:10:43.227Z,5.10
2018-05-31T23:13:10.782Z,6.10
2018-05-31T23:15:38.359Z,7.00
2018-05-31T23:18:05.942Z,7.67
2018-05-31T23:20:33.470Z,6.17
2018-05-31T23:23:00.986Z,7.13
2018-05-31T23:25:29.298Z,5.60
2018-05-31T23:27:56.851Z,7.10
2018-05-31T23:30:25.169Z,11.03
2018-05-31T23:32:53.481Z,5.73
2018-05-31T23:35:21.043Z,7.00
2018-05-31T23:37:49.389Z,9.10
2018-05-31T23:40:16.903Z,9.47
2018-05-31T23:42:44.466Z,8.20
2018-05-31T23:45:12.009Z,10.03
2018-05-31T23:47:39.545Z,7.30
2018-05-31T23:50:07.127Z,6.57
2018-05-31T23:52:34.698Z,5.93
2018-05-31T23:55:02.302Z,7.30
2018-05-31T23:57:29.862Z,5.17
2018-05-31T23:59:57.427Z,7.40
